Terminal Aerodrome Forecast
Issued by NWS Albany, NY

Home | Current Version | Previous Version | Text Only | Print | Product List | Glossary On
Versions: 1 2 3 4 5 6 7 8 9 10 11 12 13 14 15
000
FTUS41 KALY 271700
TAFALB
TAF
KALB 271736Z 2718/2818 19004KT P6SM VCSH BKN035 OVC040
     FM272100 30008KT P6SM BKN040 BKN100
     FM280800 VRB03KT P6SM SCT040 SCT250
     FM281400 33010KT P6SM SCT040=

USA.gov is the U.S. government's official web portal to all federal, state and local government web resources and services.